createdAt,value
2023-05-28T00:01:43.536Z,100582.84
2023-05-28T00:05:46.951Z,100589.06
2023-05-28T00:09:50.490Z,100596.19
2023-05-28T00:13:54.040Z,100582.44
2023-05-28T00:17:58.826Z,100585.97
2023-05-28T00:22:01.797Z,100582.59
2023-05-28T00:26:04.661Z,100588.81
2023-05-28T00:30:08.896Z,100576.78
2023-05-28T00:34:13.172Z,100574.28
2023-05-28T00:38:16.036Z,100581.34
2023-05-28T00:42:19.737Z,100568.47
2023-05-28T00:46:25.333Z,100568.53
2023-05-28T00:50:30.245Z,100568.59
2023-05-28T00:54:33.347Z,100571.28
2023-05-28T00:58:37.251Z,100574.00
2023-05-28T01:02:40.265Z,100568.00
2023-05-28T01:06:46.130Z,100577.69
2023-05-28T01:10:49.327Z,100570.84
2023-05-28T01:14:54.276Z,100570.16
2023-05-28T01:18:57.858Z,100565.03
2023-05-28T01:23:09.186Z,100550.34
2023-05-28T01:27:15.276Z,100554.03
2023-05-28T01:31:19.210Z,100543.63
2023-05-28T01:35:23.046Z,100548.00
2023-05-28T01:39:29.321Z,100537.75
2023-05-28T01:43:34.100Z,100539.59
2023-05-28T01:47:37.771Z,100530.13
2023-05-28T01:51:41.001Z,100531.78
2023-05-28T01:55:43.992Z,100532.72
2023-05-28T01:59:48.319Z,100525.00
2023-05-28T02:03:51.353Z,100525.03
2023-05-28T02:07:55.097Z,100521.72
2023-05-28T02:11:58.021Z,100515.78
2023-05-28T02:16:02.577Z,100517.59
2023-05-28T02:20:07.467Z,100513.34
2023-05-28T02:24:10.301Z,100517.78
2023-05-28T02:28:13.323Z,100514.41
2023-05-28T02:32:17.733Z,100514.44
2023-05-28T02:36:22.058Z,100506.63
2023-05-28T02:40:24.910Z,100503.13
2023-05-28T02:44:27.850Z,100508.34
2023-05-28T02:48:32.392Z,100505.56
2023-05-28T02:52:35.511Z,100509.00
2023-05-28T02:56:38.737Z,100514.97
2023-05-28T03:00:43.797Z,100522.53
2023-05-28T03:04:48.389Z,100522.22
2023-05-28T03:08:51.441Z,100518.50
2023-05-28T03:12:56.121Z,100523.31
2023-05-28T03:16:59.296Z,100527.31
2023-05-28T03:21:04.175Z,100525.16
2023-05-28T03:25:08.572Z,100527.41
2023-05-28T03:29:11.961Z,100525.19
2023-05-28T03:33:16.613Z,100520.25
2023-05-28T03:37:20.883Z,100521.25
2023-05-28T03:41:24.593Z,100528.28
2023-05-28T03:45:29.979Z,100528.25
2023-05-28T03:49:33.233Z,100527.41
2023-05-28T03:53:37.674Z,100525.44
2023-05-28T03:57:41.164Z,100532.94
2023-05-28T04:01:44.160Z,100530.19
2023-05-28T04:05:47.692Z,100531.72
2023-05-28T04:09:52.743Z,100534.72
2023-05-28T04:13:55.801Z,100536.56
2023-05-28T04:17:58.816Z,100526.06
2023-05-28T04:22:01.989Z,100526.09
2023-05-28T04:26:07.913Z,100527.25
2023-05-28T04:30:12.390Z,100520.97
2023-05-28T04:34:18.455Z,100520.13
2023-05-28T04:38:21.502Z,100518.78
2023-05-28T04:42:25.971Z,100522.59
2023-05-28T04:46:30.828Z,100521.16
2023-05-28T04:50:33.936Z,100518.34
2023-05-28T04:54:37.045Z,100527.31
2023-05-28T04:58:41.933Z,100528.72
2023-05-28T05:02:45.145Z,100525.16
2023-05-28T05:06:48.301Z,100532.66
2023-05-28T05:10:52.378Z,100540.19
2023-05-28T05:14:56.420Z,100531.75
2023-05-28T05:18:59.368Z,100528.78
2023-05-28T05:23:02.266Z,100529.97
2023-05-28T05:27:05.436Z,100521.16
2023-05-28T05:31:09.956Z,100520.22
2023-05-28T05:35:13.065Z,100529.72
2023-05-28T05:39:16.271Z,100528.63
2023-05-28T05:43:19.178Z,100528.31
2023-05-28T05:47:26.503Z,100528.00
2023-05-28T05:51:29.791Z,100519.25
2023-05-28T05:55:32.456Z,100510.25
2023-05-28T05:59:37.829Z,100518.81
2023-05-28T06:03:42.512Z,100519.28
2023-05-28T06:07:46.547Z,100527.91
2023-05-28T06:11:49.499Z,100523.56
2023-05-28T06:15:52.691Z,100518.81
2023-05-28T06:19:56.693Z,100526.78
2023-05-28T06:23:59.808Z,100528.75
2023-05-28T06:28:02.829Z,100523.78
2023-05-28T06:32:06.038Z,100530.28
2023-05-28T06:36:10.644Z,100530.47
2023-05-28T06:40:13.703Z,100528.22
2023-05-28T06:44:16.963Z,100518.00
2023-05-28T06:48:20.107Z,100534.97
2023-05-28T06:52:24.864Z,100525.59
2023-05-28T06:56:28.253Z,100524.88
2023-05-28T07:00:31.663Z,100520.38
2023-05-28T07:04:34.609Z,100527.38
2023-05-28T07:08:42.255Z,100513.97
2023-05-28T07:12:45.253Z,100515.28
2023-05-28T07:16:50.021Z,100518.63
2023-05-28T07:20:53.284Z,100513.53
2023-05-28T07:24:58.417Z,100511.88
2023-05-28T07:29:03.387Z,100509.38
2023-05-28T07:33:06.523Z,100500.56
2023-05-28T07:37:09.824Z,100495.19
2023-05-28T07:41:14.190Z,100485.53
2023-05-28T07:45:17.494Z,100494.38
2023-05-28T07:49:20.904Z,100489.28
2023-05-28T07:53:23.993Z,100490.66
2023-05-28T07:57:28.155Z,100496.69
2023-05-28T08:01:30.837Z,100494.28
2023-05-28T08:05:33.400Z,100490.59
2023-05-28T08:09:38.394Z,100494.69
2023-05-28T08:13:43.518Z,100478.72
2023-05-28T08:17:46.946Z,100486.09
2023-05-28T08:21:50.250Z,100490.09
2023-05-28T08:25:53.384Z,100471.00
2023-05-28T08:29:58.103Z,100485.22
2023-05-28T08:34:01.102Z,100466.56
2023-05-28T08:38:05.899Z,100477.75
2023-05-28T08:42:09.062Z,100474.00
2023-05-28T08:46:13.871Z,100462.22
2023-05-28T08:50:17.962Z,100457.22
2023-05-28T08:54:21.473Z,100465.34
2023-05-28T08:58:24.346Z,100459.53
2023-05-28T09:02:29.660Z,100460.25
2023-05-28T09:06:32.873Z,100463.72
2023-05-28T09:10:36.133Z,100456.94
2023-05-28T09:14:41.867Z,100452.50
2023-05-28T09:18:47.288Z,100457.69
2023-05-28T09:23:00.208Z,100458.28
2023-05-28T09:27:03.545Z,100450.00
2023-05-28T09:31:08.282Z,100448.66
2023-05-28T09:35:15.037Z,100444.69
2023-05-28T09:39:18.762Z,100429.81
2023-05-28T09:43:31.730Z,100422.69
2023-05-28T09:47:44.398Z,100424.94
2023-05-28T09:51:53.599Z,100415.88
2023-05-28T09:55:59.338Z,100412.06
2023-05-28T10:00:15.492Z,100402.59
2023-05-28T10:04:22.805Z,100406.28
2023-05-28T10:08:28.319Z,100400.56
2023-05-28T10:12:32.969Z,100402.38
2023-05-28T10:16:37.428Z,100402.19
2023-05-28T10:20:41.650Z,100405.34
2023-05-28T10:24:47.389Z,100389.41
2023-05-28T10:28:56.494Z,100388.41
2023-05-28T10:33:00.069Z,100384.47
2023-05-28T10:37:04.859Z,100383.97
2023-05-28T10:41:11.270Z,100379.75
2023-05-28T10:45:14.571Z,100374.06
2023-05-28T10:49:19.583Z,100367.31
2023-05-28T10:53:22.766Z,100362.03
2023-05-28T10:57:27.381Z,100355.66
2023-05-28T11:01:32.902Z,100367.78
2023-05-28T11:05:38.025Z,100344.97
2023-05-28T11:09:44.540Z,100359.59
2023-05-28T11:13:50.290Z,100348.00
2023-05-28T11:17:53.206Z,100346.91
2023-05-28T11:21:59.381Z,100343.28
2023-05-28T11:26:17.959Z,100344.00
2023-05-28T11:30:22.699Z,100353.00
2023-05-28T11:34:25.745Z,100347.84
2023-05-28T11:38:28.797Z,100341.00
2023-05-28T11:42:32.057Z,100340.00
2023-05-28T11:46:36.511Z,100337.53
2023-05-28T11:50:39.976Z,100320.63
2023-05-28T11:54:44.329Z,100321.53
2023-05-28T11:58:50.154Z,100326.91
2023-05-28T12:02:55.937Z,100324.25
2023-05-28T12:06:59.772Z,100318.63
2023-05-28T12:11:07.176Z,100314.50
2023-05-28T12:15:11.931Z,100316.63
2023-05-28T12:19:17.261Z,100306.75
2023-05-28T12:23:23.584Z,100294.50
2023-05-28T12:27:26.631Z,100304.56
2023-05-28T12:31:30.683Z,100291.41
2023-05-28T12:35:34.574Z,100295.66
2023-05-28T12:39:38.412Z,100291.91
2023-05-28T12:43:41.425Z,100283.44
2023-05-28T12:47:45.223Z,100289.34
2023-05-28T12:51:49.861Z,100284.56
2023-05-28T12:55:52.769Z,100287.25
2023-05-28T12:59:55.885Z,100279.75
2023-05-28T13:03:59.048Z,100279.25
2023-05-28T13:08:03.970Z,100262.47
2023-05-28T13:12:07.968Z,100260.91
2023-05-28T13:16:12.127Z,100264.38
2023-05-28T13:20:17.636Z,100265.03
2023-05-28T13:24:22.155Z,100263.41
2023-05-28T13:28:25.415Z,100245.16
2023-05-28T13:32:28.699Z,100257.56
2023-05-28T13:36:32.569Z,100243.66
2023-05-28T13:40:39.603Z,100237.88
2023-05-28T13:44:42.784Z,100238.53
2023-05-28T13:48:46.052Z,100235.69
2023-05-28T13:52:49.018Z,100240.53
2023-05-28T13:56:54.196Z,100240.28
2023-05-28T14:00:57.120Z,100229.59
2023-05-28T14:05:00.231Z,100222.88
2023-05-28T14:09:03.508Z,100218.84
2023-05-28T14:13:08.332Z,100211.63
2023-05-28T14:17:11.318Z,100214.81
2023-05-28T14:21:13.906Z,100216.16
2023-05-28T14:25:16.862Z,100206.25
2023-05-28T14:29:21.083Z,100194.78
2023-05-28T14:33:24.170Z,100200.53
2023-05-28T14:37:27.126Z,100195.00
2023-05-28T14:41:30.186Z,100203.56
2023-05-28T14:45:34.481Z,100206.25
2023-05-28T14:49:37.473Z,100195.81
2023-05-28T14:53:40.492Z,100188.41
2023-05-28T14:57:43.419Z,100185.25
2023-05-28T15:01:47.876Z,100180.22
2023-05-28T15:05:50.940Z,100173.34
2023-05-28T15:09:53.969Z,100180.88
2023-05-28T15:13:57.531Z,100172.81
2023-05-28T15:18:02.316Z,100173.50
2023-05-28T15:22:05.695Z,100159.53
2023-05-28T15:26:09.177Z,100167.44
2023-05-28T15:30:12.968Z,100163.56
2023-05-28T15:34:18.357Z,100161.41
2023-05-28T15:38:21.875Z,100169.97
2023-05-28T15:42:25.069Z,100168.13
2023-05-28T15:46:28.590Z,100158.56
2023-05-28T15:50:34.944Z,100162.91
2023-05-28T15:54:39.967Z,100157.47
2023-05-28T15:58:43.722Z,100144.81
2023-05-28T16:02:49.269Z,100137.59
2023-05-28T16:06:54.393Z,100142.41
2023-05-28T16:10:58.133Z,100147.75
2023-05-28T16:15:07.664Z,100135.34
2023-05-28T16:19:12.646Z,100137.31
2023-05-28T16:23:17.904Z,100139.81
2023-05-28T16:27:21.272Z,100143.22
2023-05-28T16:31:26.468Z,100138.78
2023-05-28T16:35:30.241Z,100133.84
2023-05-28T16:39:35.185Z,100137.94
2023-05-28T16:43:38.971Z,100135.22
2023-05-28T16:47:42.554Z,100141.44
2023-05-28T16:51:45.883Z,100142.16
2023-05-28T16:55:51.841Z,100150.56
2023-05-28T16:59:55.970Z,100135.97
2023-05-28T17:03:59.242Z,100137.97
2023-05-28T17:08:08.957Z,100142.56
2023-05-28T17:12:13.913Z,100132.81
2023-05-28T17:16:19.669Z,100133.59
2023-05-28T17:20:26.970Z,100142.53
2023-05-28T17:24:30.895Z,100130.22
2023-05-28T17:28:35.433Z,100127.91
2023-05-28T17:32:43.944Z,100122.47
2023-05-28T17:36:49.378Z,100123.97
2023-05-28T17:40:52.729Z,100118.28
2023-05-28T17:44:57.692Z,100125.97
2023-05-28T17:49:00.789Z,100127.31
2023-05-28T17:53:05.458Z,100133.25
2023-05-28T17:57:08.684Z,100131.88
2023-05-28T18:01:13.616Z,100136.63
2023-05-28T18:05:17.052Z,100136.19
2023-05-28T18:09:21.283Z,100136.81
2023-05-28T18:13:24.394Z,100133.34
2023-05-28T18:17:29.124Z,100134.28
2023-05-28T18:21:33.823Z,100133.44
2023-05-28T18:25:37.775Z,100134.31
2023-05-28T18:29:41.145Z,100132.97
2023-05-28T18:33:46.396Z,100128.94
2023-05-28T18:37:50.035Z,100129.59
2023-05-28T18:41:54.097Z,100123.97
2023-05-28T18:45:57.442Z,100128.53
2023-05-28T18:50:01.928Z,100143.31
2023-05-28T18:54:05.396Z,100140.00
2023-05-28T18:58:08.983Z,100137.41
2023-05-28T19:02:12.421Z,100142.38
2023-05-28T19:06:18.009Z,100153.56
2023-05-28T19:10:22.677Z,100144.41
2023-05-28T19:14:26.100Z,100145.00
2023-05-28T19:18:29.182Z,100151.69
2023-05-28T19:22:33.980Z,100166.63
2023-05-28T19:26:37.358Z,100161.44
2023-05-28T19:30:42.809Z,100164.31
2023-05-28T19:34:50.264Z,100162.69
2023-05-28T19:38:55.199Z,100157.59
2023-05-28T19:42:58.608Z,100158.75
2023-05-28T19:47:02.109Z,100152.97
2023-05-28T19:51:05.794Z,100167.00
2023-05-28T19:55:11.615Z,100161.53
2023-05-28T19:59:15.106Z,100165.72
2023-05-28T20:03:18.815Z,100163.00
2023-05-28T20:07:23.784Z,100163.69
2023-05-28T20:11:31.662Z,100158.25
2023-05-28T20:15:38.669Z,100164.28
2023-05-28T20:19:42.286Z,100171.81
2023-05-28T20:23:45.703Z,100178.22
2023-05-28T20:27:52.474Z,100172.59
2023-05-28T20:31:55.428Z,100168.81
2023-05-28T20:35:58.986Z,100171.19
2023-05-28T20:40:02.954Z,100173.44
2023-05-28T20:44:07.645Z,100169.94
2023-05-28T20:48:10.879Z,100160.88
2023-05-28T20:52:14.237Z,100166.69
2023-05-28T20:56:17.232Z,100174.31
2023-05-28T21:00:23.910Z,100170.66
2023-05-28T21:04:28.041Z,100161.63
2023-05-28T21:08:31.056Z,100160.28
2023-05-28T21:12:34.768Z,100175.81
2023-05-28T21:16:39.076Z,100172.94
2023-05-28T21:20:42.131Z,100170.81
2023-05-28T21:24:45.788Z,100168.78
2023-05-28T21:28:48.480Z,100177.28
2023-05-28T21:32:53.120Z,100176.06
2023-05-28T21:37:00.282Z,100176.34
2023-05-28T21:41:04.916Z,100179.09
2023-05-28T21:45:11.420Z,100182.16
2023-05-28T21:49:17.948Z,100179.25
2023-05-28T21:53:21.641Z,100174.50
2023-05-28T21:57:24.661Z,100169.31
2023-05-28T22:01:28.062Z,100164.06
2023-05-28T22:05:32.474Z,100157.25
2023-05-28T22:09:35.311Z,100154.13
2023-05-28T22:13:39.645Z,100157.09
2023-05-28T22:17:43.386Z,100159.25
2023-05-28T22:22:09.660Z,100159.56
2023-05-28T22:26:12.435Z,100158.28
2023-05-28T22:30:15.666Z,100168.34
2023-05-28T22:34:21.474Z,100172.91
2023-05-28T22:38:26.757Z,100160.84
2023-05-28T22:42:30.972Z,100165.66
2023-05-28T22:46:34.285Z,100165.00
2023-05-28T22:50:37.723Z,100161.63
2023-05-28T22:54:42.327Z,100159.06
2023-05-28T22:58:45.440Z,100156.59
2023-05-28T23:02:51.276Z,100154.13
2023-05-28T23:06:54.292Z,100151.91
2023-05-28T23:11:02.201Z,100142.84
2023-05-28T23:15:13.395Z,100153.88
2023-05-28T23:19:17.409Z,100148.09
2023-05-28T23:23:21.225Z,100152.72
2023-05-28T23:27:25.977Z,100158.88
2023-05-28T23:31:31.162Z,100153.03
2023-05-28T23:35:34.031Z,100149.69
2023-05-28T23:39:37.193Z,100150.78
2023-05-28T23:43:41.475Z,100149.28
2023-05-28T23:47:44.506Z,100136.47
2023-05-28T23:51:47.770Z,100135.84
2023-05-28T23:55:50.190Z,100134.34
2023-05-28T23:59:54.717Z,100136.22
